Startpagina
METAR-TAF:

METAR-TAF

Vliegvelden :

Internationale luchthaven Koning Abdoel Aziz

Djedda, Saoedi-Arabië

breedte: 21-42N, lengte: 039-11E, hoogte: 15 m

Actueel weer

Dit bericht is 46 minuten geleden gemaakt, om 05:00 UTC
Weinig wind
Temperatuur 26°C
Vochtigheid 61%
Druk 1015 hPa
Zicht 10 km of meer
geen wolken onder 1500 m en geen cumulonimbus

METAR: OEJN 180500Z 00000KT CAVOK 26/18 Q1015 NOSIG

Tijdstip: 08:46 (05:46 UTC)

Verwachting

Dit bericht is 46 minuten geleden gemaakt, om 05:00 UTC
Verwachting geldig van 18 om 06 UTC tot 19 om 12 UTC
Wind 15 kt uit het westzuidwesten
Zicht 10 km of meer
Weinig wolken op 4000 ft
Kans 30% :
Tijdelijke
van 18 om 07 UTC tot 18 om 15 UTC
Weinig wolken op 3500 ft, Cumulonimbus.
Verspreide wolken op 4000 ft
Wijzigt naar
van 18 om 18 UTC tot 18 om 20 UTC
Wind 3 kt uit variabele richting

TAF: OEJN 180500Z 1806/1912 24015KT 9999 FEW040 PROB30 TEMPO 1807/1815 FEW035CB SCT040 BECMG 1818/1820 VRB03KT

Waarnemingen en weersverwachtingen van meer dan 4000 vliegvelden (METAR en TAF).

De beschikbare stations zijn de gele en rode punten op de kaart.

Ga met uw muis naar het station om de naam te zien.

Klik dan om waarnemingen en weersverwachtingen te zien.

kaart wijzigen: klik op de groene knoppen met een zwart kruis om in te zoomen, op de groene knop met een streepje om uit te zoomen of op de groene pijlen voor aangrenzende kaarten.


METAR-TAF: